createdAt,value
2022-11-14T04:50:20.875Z,0.01
2022-11-14T05:17:32.965Z,0.02
2022-11-14T05:29:36.279Z,0.01
2022-11-14T05:32:12.380Z,0.02
2022-11-14T05:46:37.805Z,0.03
2022-11-14T05:54:52.704Z,0.04
2022-11-14T05:59:11.512Z,0.05
2022-11-14T06:02:02.657Z,0.07
2022-11-14T06:04:39.400Z,0.09
2022-11-14T06:07:02.221Z,0.14
2022-11-14T06:09:10.748Z,0.19
2022-11-14T06:12:07.979Z,0.31
2022-11-14T06:14:51.193Z,0.44
2022-11-14T06:17:19.781Z,0.66
2022-11-14T06:19:34.373Z,0.88
2022-11-14T06:21:35.017Z,1.1
2022-11-14T06:24:24.373Z,1.46
2022-11-14T06:26:59.416Z,2.19
2022-11-14T06:29:20.237Z,3.51
2022-11-14T06:31:26.976Z,4.13
2022-11-14T06:34:22.431Z,5.25
2022-11-14T06:37:03.640Z,6.53
2022-11-14T06:39:30.866Z,7.27
2022-11-14T06:41:43.906Z,8.28
2022-11-14T06:43:42.453Z,9.36
2022-11-14T06:46:29.985Z,16
2022-11-14T06:49:03.267Z,22.55
2022-11-14T06:51:22.273Z,20.95
2022-11-14T06:53:27.197Z,21.89
2022-11-14T06:56:20.968Z,28.81
2022-11-14T06:59:00.208Z,31.11
2022-11-14T07:01:25.313Z,27.67
2022-11-14T07:03:36.557Z,33.27
2022-11-14T07:06:36.245Z,42.4
2022-11-14T07:09:21.291Z,56.36
2022-11-14T07:11:52.715Z,59.22
2022-11-14T07:14:09.952Z,69.4
2022-11-14T07:16:12.959Z,78.58
2022-11-14T07:19:04.866Z,96.2
2022-11-14T07:21:42.430Z,88.48
2022-11-14T07:24:05.794Z,77.08
2022-11-14T07:26:15.227Z,78.18
2022-11-14T07:29:13.180Z,74.86
2022-11-14T07:31:56.946Z,86.76
2022-11-14T07:34:26.487Z,104.64
2022-11-14T07:36:41.992Z,101.08
2022-11-14T07:38:43.308Z,119
2022-11-14T07:41:33.199Z,89.12
2022-11-14T07:44:09.082Z,124.88
2022-11-14T07:46:30.719Z,133.24
2022-11-14T07:48:38.069Z,128.6
2022-11-14T07:51:34.259Z,144.76
2022-11-14T07:54:16.163Z,148.92
2022-11-14T07:56:43.905Z,153.36
2022-11-14T07:58:57.428Z,177.6
2022-11-14T08:00:56.585Z,200.4
2022-11-14T08:03:45.859Z,188.4
2022-11-14T08:06:18.572Z,188.5
2022-11-14T08:08:38.440Z,190.7
2022-11-14T08:10:44.084Z,215.5
2022-11-14T08:13:38.363Z,229.6
2022-11-14T08:16:18.715Z,211.2
2022-11-14T08:18:44.748Z,245.8
2022-11-14T08:20:56.563Z,333.4
2022-11-14T08:22:54.367Z,358.2
2022-11-14T08:25:40.786Z,358.5
2022-11-14T08:28:12.991Z,324.2
2022-11-14T08:30:30.923Z,224.3
2022-11-14T08:32:34.843Z,204.3
2022-11-14T08:35:27.369Z,252.1
2022-11-14T08:38:05.697Z,257.2
2022-11-14T08:40:30.010Z,227.9
2022-11-14T08:42:40.123Z,218.6
2022-11-14T08:45:38.815Z,218.5
2022-11-14T08:48:23.507Z,230.7
2022-11-14T08:50:53.981Z,250.5
2022-11-14T08:53:09.790Z,225.2
2022-11-14T08:55:11.974Z,229.2
2022-11-14T08:58:02.746Z,272.3
2022-11-14T09:00:39.294Z,252
2022-11-14T09:03:01.636Z,238.6
2022-11-14T09:05:09.934Z,244.5
2022-11-14T09:08:06.854Z,269
2022-11-14T09:10:49.545Z,248
2022-11-14T09:13:18.254Z,211
2022-11-14T09:15:32.733Z,242.5
2022-11-14T09:17:32.920Z,321.6
2022-11-14T09:20:23.859Z,387.2
2022-11-14T09:22:56.811Z,508.6
2022-11-14T09:25:17.405Z,415
2022-11-14T09:27:24.036Z,517.6
2022-11-14T09:30:19.242Z,566
2022-11-14T09:33:00.269Z,668.4
2022-11-14T09:35:27.055Z,773.1
2022-11-14T09:37:39.834Z,588
2022-11-14T09:39:38.392Z,569.6
2022-11-14T09:42:25.527Z,572.3
2022-11-14T09:44:58.203Z,584.8
2022-11-14T09:47:20.631Z,493.9
2022-11-14T09:49:21.748Z,402.8
2022-11-14T09:52:15.362Z,457.2
2022-11-14T09:54:54.599Z,637.7
2022-11-14T09:57:19.653Z,577.2
2022-11-14T09:59:30.644Z,720.6
2022-11-14T10:02:30.257Z,816.6
2022-11-14T10:05:15.675Z,853.1
2022-11-14T10:07:46.885Z,672
2022-11-14T10:10:04.107Z,852.4
2022-11-14T10:12:07.089Z,591.5
2022-11-14T10:14:58.649Z,766.7
2022-11-14T10:17:36.188Z,906.5
2022-11-14T10:19:59.514Z,953.2
2022-11-14T10:22:08.611Z,873.9
2022-11-14T10:25:06.546Z,908.8
2022-11-14T10:27:54.123Z,864.9
2022-11-14T10:30:19.760Z,848.9
2022-11-14T10:32:34.881Z,856.3
2022-11-14T10:34:36.096Z,854.7
2022-11-14T10:37:25.515Z,443.5
2022-11-14T10:40:01.076Z,475.8
2022-11-14T10:42:22.596Z,497.2
2022-11-14T10:44:29.862Z,440.9
2022-11-14T10:47:25.772Z,422.4
2022-11-14T10:50:07.702Z,475.6
2022-11-14T10:52:35.385Z,612.6
2022-11-14T10:54:48.825Z,552.6
2022-11-14T10:56:48.296Z,484
2022-11-14T10:59:36.428Z,578
2022-11-14T11:01:51.050Z,565.6
2022-11-14T11:03:51.537Z,610.8
2022-11-14T11:06:40.497Z,660.8
2022-11-14T11:09:15.578Z,679
2022-11-14T11:11:36.368Z,671.6
2022-11-14T11:13:42.955Z,600.3
2022-11-14T11:16:38.421Z,621.7
2022-11-14T11:19:19.608Z,816.9
2022-11-14T11:21:46.551Z,721.2
2022-11-14T11:23:59.579Z,662.4
2022-11-14T11:25:58.342Z,609.9
2022-11-14T11:28:45.281Z,635.6
2022-11-14T11:31:18.336Z,690.2
2022-11-14T11:33:37.388Z,556.1
2022-11-14T11:35:42.226Z,518.8
2022-11-14T11:38:35.673Z,397.9
2022-11-14T11:41:20.574Z,506
2022-11-14T11:43:40.421Z,899.8
2022-11-14T11:45:51.298Z,790.4
2022-11-14T11:48:51.055Z,452.6
2022-11-14T11:51:36.547Z,490.2
2022-11-14T11:54:07.826Z,468.1
2022-11-14T11:56:24.836Z,419.6
2022-11-14T11:58:27.869Z,418.2
2022-11-14T12:01:19.473Z,504.1
2022-11-14T12:03:56.847Z,555.2
2022-11-14T12:06:20.208Z,576.8
2022-11-14T12:08:29.417Z,648.4
2022-11-14T12:11:27.144Z,826.2
2022-11-14T12:14:10.970Z,806.7
2022-11-14T12:16:40.477Z,853.7
2022-11-14T12:18:55.821Z,1258.8
2022-11-14T12:20:56.785Z,904.9
2022-11-14T12:23:46.706Z,601.9
2022-11-14T12:26:22.349Z,497.7
2022-11-14T12:28:43.727Z,475.6
2022-11-14T12:30:51.165Z,471.5
2022-11-14T12:33:47.203Z,557.2
2022-11-14T12:36:28.931Z,484
2022-11-14T12:38:56.659Z,483.6
2022-11-14T12:41:10.194Z,403.2
2022-11-14T12:43:09.544Z,317.7
2022-11-14T12:45:57.778Z,360.3
2022-11-14T12:48:31.625Z,315.2
2022-11-14T12:50:51.478Z,286.3
2022-11-14T12:52:57.192Z,216.8
2022-11-14T12:55:51.567Z,200.4
2022-11-14T12:58:31.767Z,194.8
2022-11-14T13:00:57.716Z,184.2
2022-11-14T13:03:09.638Z,226.7
2022-11-14T13:05:07.340Z,248.9
2022-11-14T13:07:53.612Z,187.4
2022-11-14T13:10:25.897Z,158.52
2022-11-14T13:12:43.566Z,107.36
2022-11-14T13:14:47.343Z,96.52
2022-11-14T13:17:39.865Z,100.96
2022-11-14T13:20:18.320Z,147.28
2022-11-14T13:22:42.576Z,186.8
2022-11-14T13:24:52.702Z,203.5
2022-11-14T13:28:06.336Z,218.5
2022-11-14T13:30:35.884Z,181.8
2022-11-14T13:33:06.155Z,162.92
2022-11-14T13:35:22.568Z,203.9
2022-11-14T13:37:24.521Z,250.9
2022-11-14T13:40:15.103Z,241.5
2022-11-14T13:42:51.757Z,235.2
2022-11-14T13:45:14.185Z,231.4
2022-11-14T13:47:22.398Z,223.4
2022-11-14T13:50:19.223Z,231.1
2022-11-14T13:53:01.952Z,224.4
2022-11-14T13:55:30.513Z,276.9
2022-11-14T13:57:44.829Z,244.5
2022-11-14T13:59:45.222Z,200.8
2022-11-14T14:02:34.105Z,185.5
2022-11-14T14:05:08.324Z,227.4
2022-11-14T14:07:29.079Z,185.2
2022-11-14T14:09:35.466Z,132.76
2022-11-14T14:12:30.513Z,106.8
2022-11-14T14:15:11.604Z,65.76
2022-11-14T14:17:38.465Z,60.4
2022-11-14T14:19:51.211Z,78.06
2022-11-14T14:21:49.786Z,92.8
2022-11-14T14:24:37.090Z,82.64
2022-11-14T14:27:10.127Z,59.08
2022-11-14T14:29:28.633Z,52.88
2022-11-14T14:31:33.394Z,58.58
2022-11-14T14:34:26.858Z,74.5
2022-11-14T14:37:06.156Z,110.92
2022-11-14T14:39:31.308Z,169.5
2022-11-14T14:41:42.257Z,224.2
2022-11-14T14:44:41.835Z,197.1
2022-11-14T14:47:27.451Z,137.24
2022-11-14T14:49:58.807Z,122.72
2022-11-14T14:52:15.902Z,82.16
2022-11-14T14:54:18.931Z,56.04
2022-11-14T14:57:10.288Z,27.66
2022-11-14T14:58:08.767Z,27.66
2022-11-14T14:59:47.816Z,31.49
2022-11-14T15:02:11.014Z,24.26
2022-11-14T15:04:20.303Z,25.23
2022-11-14T15:07:18.156Z,26.52
2022-11-14T15:10:01.688Z,34.51
2022-11-14T15:12:31.377Z,35.66
2022-11-14T15:14:46.729Z,38.12
2022-11-14T15:16:47.844Z,25.21
2022-11-14T15:19:37.862Z,18.36
2022-11-14T15:22:13.666Z,19.49
2022-11-14T15:24:35.357Z,19.55
2022-11-14T15:26:43.056Z,18.73
2022-11-14T15:29:39.221Z,12.91
2022-11-14T15:32:21.110Z,7.88
2022-11-14T15:34:48.694Z,8.44
2022-11-14T15:37:02.395Z,6.6
2022-11-14T15:38:58.962Z,6.6
2022-11-14T15:40:11.101Z,4.66
2022-11-14T15:41:49.814Z,4.59
2022-11-14T15:44:23.744Z,4.77
2022-11-14T15:46:43.481Z,3.89
2022-11-14T15:51:43.132Z,2.76
2022-11-14T15:54:23.419Z,2.23
2022-11-14T15:56:49.470Z,1.22
2022-11-14T15:59:01.534Z,0.81
2022-11-14T16:00:59.555Z,0.69
2022-11-14T16:03:45.741Z,0.65
2022-11-14T16:06:17.732Z,0.5
2022-11-14T16:08:35.805Z,0.39
2022-11-14T16:10:39.645Z,0.25
2022-11-14T16:13:32.284Z,0.15
2022-11-14T16:16:10.402Z,0.2
2022-11-14T16:18:34.560Z,0.18
2022-11-14T16:20:44.578Z,0.17
2022-11-14T16:23:43.324Z,0.07
2022-11-14T16:26:27.882Z,0.06
2022-11-14T16:28:58.167Z,0.05
2022-11-14T16:33:16.263Z,0.04
2022-11-14T16:51:46.540Z,0.03
2022-11-14T17:01:00.993Z,0.04
2022-11-14T17:05:28.020Z,0.13
2022-11-14T17:08:23.103Z,0.12
2022-11-14T17:11:04.023Z,0.03
2022-11-14T17:13:31.244Z,0.04
2022-11-14T17:17:42.098Z,0.05
2022-11-14T17:20:29.402Z,0.06
2022-11-14T17:25:21.319Z,0.05
2022-11-14T17:27:26.229Z,0.04
2022-11-14T17:30:19.662Z,0.05
2022-11-14T17:35:23.533Z,0.06
2022-11-14T17:37:34.645Z,0.05
2022-11-14T17:40:34.224Z,0.06
2022-11-14T17:43:19.625Z,0.05
2022-11-14T17:55:40.454Z,0.06
2022-11-14T17:58:03.783Z,0.04
2022-11-14T18:03:11.142Z,0.05
2022-11-14T18:05:54.754Z,0.04
2022-11-14T18:18:06.783Z,0.05
2022-11-14T18:25:31.505Z,0.04
2022-11-14T19:06:30.588Z,0.05
2022-11-14T19:09:23.005Z,0.04
2022-11-14T19:12:01.185Z,0.05
2022-11-14T19:16:34.984Z,0.04
2022-11-14T19:19:33.598Z,0.02
2022-11-14T19:22:18.174Z,0.01
2022-11-14T19:44:43.793Z,0.02
2022-11-14T19:59:14.870Z,0.01
2022-11-14T20:58:59.940Z,0
2022-11-14T21:04:12.547Z,0.01
2022-11-14T21:08:29.543Z,0
2022-11-14T21:28:42.087Z,0.01
2022-11-14T21:59:51.512Z,0
2022-11-14T22:02:38.794Z,0.01
2022-11-14T22:35:14.337Z,0
2022-11-14T22:40:15.223Z,0.01
2022-11-14T22:45:21.944Z,0
2022-11-14T22:48:05.910Z,0.01
2022-11-14T22:57:42.539Z,0
